createdAt,value
2018-12-08T00:02:03.544Z,2.60
2018-12-08T00:04:32.081Z,3.23
2018-12-08T00:07:00.620Z,2.47
2018-12-08T00:09:29.146Z,2.93
2018-12-08T00:11:57.692Z,2.20
2018-12-08T00:14:26.264Z,2.70
2018-12-08T00:16:54.934Z,2.67
2018-12-08T00:19:23.458Z,2.50
2018-12-08T00:21:51.965Z,2.87
2018-12-08T00:24:20.466Z,2.83
2018-12-08T00:26:49.010Z,2.13
2018-12-08T00:29:17.532Z,2.40
2018-12-08T00:31:47.061Z,2.60
2018-12-08T00:34:15.573Z,2.40
2018-12-08T00:36:44.764Z,2.70
2018-12-08T00:39:13.367Z,2.10
2018-12-08T00:41:41.887Z,2.13
2018-12-08T00:44:10.407Z,2.57
2018-12-08T00:46:38.941Z,2.50
2018-12-08T00:49:07.491Z,2.50
2018-12-08T00:51:36.118Z,2.47
2018-12-08T00:54:06.993Z,2.20
2018-12-08T00:56:36.535Z,2.53
2018-12-08T00:59:05.191Z,1.90
2018-12-08T01:01:33.711Z,2.10
2018-12-08T01:04:02.244Z,2.37
2018-12-08T01:06:30.804Z,2.43
2018-12-08T01:08:59.448Z,2.60
2018-12-08T01:11:28.207Z,3.30
2018-12-08T01:13:56.854Z,3.00
2018-12-08T01:16:25.448Z,2.80
2018-12-08T01:18:53.974Z,2.47
2018-12-08T01:21:22.492Z,2.07
2018-12-08T01:23:51.176Z,2.20
2018-12-08T01:26:19.718Z,2.17
2018-12-08T01:28:48.501Z,2.50
2018-12-08T01:31:17.226Z,2.60
2018-12-08T01:33:45.817Z,2.13
2018-12-08T01:36:14.370Z,2.17
2018-12-08T01:38:42.867Z,2.10
2018-12-08T01:41:11.387Z,2.87
2018-12-08T01:43:39.899Z,2.40
2018-12-08T01:46:08.458Z,2.77
2018-12-08T01:48:36.999Z,3.13
2018-12-08T01:51:05.587Z,2.60
2018-12-08T01:53:34.127Z,2.00
2018-12-08T01:56:02.673Z,2.20
2018-12-08T01:58:31.255Z,2.23
2018-12-08T02:00:59.830Z,1.90
2018-12-08T02:03:28.557Z,2.10
2018-12-08T02:05:57.127Z,2.13
2018-12-08T02:08:25.828Z,2.10
2018-12-08T02:10:54.384Z,1.83
2018-12-08T02:13:22.931Z,2.30
2018-12-08T02:15:51.473Z,1.83
2018-12-08T02:18:20.121Z,1.80
2018-12-08T02:20:48.667Z,2.50
2018-12-08T02:23:17.326Z,1.93
2018-12-08T02:25:45.931Z,2.03
2018-12-08T02:28:14.741Z,1.80
2018-12-08T02:30:43.403Z,2.03
2018-12-08T02:33:12.948Z,1.80
2018-12-08T02:35:41.588Z,1.80
2018-12-08T02:38:10.423Z,2.87
2018-12-08T02:40:39.170Z,2.03
2018-12-08T02:43:07.931Z,2.40
2018-12-08T02:45:36.473Z,1.87
2018-12-08T02:48:05.109Z,2.47
2018-12-08T02:50:33.923Z,2.10
2018-12-08T02:53:02.499Z,2.03
2018-12-08T02:55:31.077Z,2.47
2018-12-08T02:57:59.642Z,2.30
2018-12-08T03:00:28.242Z,2.30
2018-12-08T03:02:56.819Z,2.53
2018-12-08T03:05:25.395Z,2.20
2018-12-08T03:07:53.929Z,2.87
2018-12-08T03:10:22.505Z,2.30
2018-12-08T03:12:51.137Z,3.17
2018-12-08T03:15:19.675Z,2.37
2018-12-08T03:17:48.257Z,1.80
2018-12-08T03:20:16.794Z,1.90
2018-12-08T03:22:45.327Z,2.10
2018-12-08T03:25:13.987Z,2.40
2018-12-08T03:27:42.516Z,2.23
2018-12-08T03:30:11.018Z,2.00
2018-12-08T03:32:39.586Z,2.40
2018-12-08T03:35:08.107Z,1.90
2018-12-08T03:37:36.683Z,2.17
2018-12-08T03:40:05.510Z,2.17
2018-12-08T03:42:34.095Z,3.00
2018-12-08T03:45:02.680Z,2.20
2018-12-08T03:47:31.256Z,2.50
2018-12-08T03:49:59.780Z,2.30
2018-12-08T03:52:28.339Z,2.57
2018-12-08T03:54:56.892Z,2.23
2018-12-08T03:57:25.409Z,2.30
2018-12-08T03:59:53.936Z,1.70
2018-12-08T04:02:22.470Z,2.37
2018-12-08T04:04:50.992Z,2.40
2018-12-08T04:07:19.754Z,2.47
2018-12-08T04:09:48.271Z,2.27
2018-12-08T04:12:16.807Z,2.07
2018-12-08T04:14:45.419Z,2.37
2018-12-08T04:17:13.967Z,2.53
2018-12-08T04:19:42.945Z,2.70
2018-12-08T04:22:11.461Z,2.87
2018-12-08T04:24:39.966Z,2.93
2018-12-08T04:27:08.494Z,2.77
2018-12-08T04:29:37.037Z,3.07
2018-12-08T04:32:05.597Z,2.77
2018-12-08T04:34:34.165Z,3.00
2018-12-08T04:37:02.789Z,3.43
2018-12-08T04:39:31.291Z,2.93
2018-12-08T04:41:59.812Z,2.87
2018-12-08T04:44:28.341Z,2.70
2018-12-08T04:46:56.889Z,2.63
2018-12-08T04:49:25.409Z,2.93
2018-12-08T04:51:53.898Z,3.00
2018-12-08T04:54:22.405Z,2.97
2018-12-08T04:56:50.922Z,3.07
2018-12-08T04:59:19.504Z,3.00
2018-12-08T05:01:48.049Z,3.87
2018-12-08T05:04:16.624Z,3.70
2018-12-08T05:06:45.333Z,3.20
2018-12-08T05:09:13.901Z,3.30
2018-12-08T05:11:42.452Z,3.47
2018-12-08T05:14:10.984Z,3.57
2018-12-08T05:16:39.614Z,3.27
2018-12-08T05:19:08.248Z,3.40
2018-12-08T05:21:36.883Z,3.17
2018-12-08T05:24:05.540Z,3.40
2018-12-08T05:26:34.089Z,4.50
2018-12-08T05:29:02.678Z,3.93
2018-12-08T05:31:31.223Z,3.57
2018-12-08T05:33:59.931Z,3.57
2018-12-08T05:36:28.465Z,3.97
2018-12-08T05:38:57.002Z,3.40
2018-12-08T05:41:25.533Z,4.00
2018-12-08T05:43:54.032Z,4.03
2018-12-08T05:46:22.668Z,3.77
2018-12-08T05:48:51.276Z,3.80
2018-12-08T05:51:19.815Z,3.90
2018-12-08T05:53:48.574Z,4.47
2018-12-08T05:56:17.071Z,4.00
2018-12-08T05:58:45.571Z,3.60
2018-12-08T06:01:14.151Z,4.20
2018-12-08T06:03:42.686Z,3.50
2018-12-08T06:06:11.209Z,3.77
2018-12-08T06:08:39.731Z,3.93
2018-12-08T06:11:08.269Z,3.53
2018-12-08T06:13:36.973Z,3.80
2018-12-08T06:16:05.665Z,3.77
2018-12-08T06:18:34.182Z,3.33
2018-12-08T06:21:02.724Z,3.97
2018-12-08T06:23:31.232Z,3.83
2018-12-08T06:26:06.966Z,3.30
2018-12-08T06:28:38.953Z,3.57
2018-12-08T06:31:07.662Z,3.60
2018-12-08T06:33:36.211Z,3.87
2018-12-08T06:36:05.795Z,3.47
2018-12-08T06:38:34.275Z,4.07
2018-12-08T06:41:02.962Z,4.70
2018-12-08T06:43:31.471Z,4.23
2018-12-08T06:45:59.996Z,4.60
2018-12-08T06:48:28.512Z,5.17
2018-12-08T06:50:57.140Z,4.80
2018-12-08T06:53:25.773Z,5.30
2018-12-08T06:55:54.443Z,5.77
2018-12-08T06:58:22.967Z,5.00
2018-12-08T07:00:51.522Z,5.17
2018-12-08T07:03:20.050Z,4.83
2018-12-08T07:05:48.787Z,5.13
2018-12-08T07:08:17.568Z,5.37
2018-12-08T07:10:46.163Z,4.50
2018-12-08T07:13:14.698Z,5.03
2018-12-08T07:15:43.232Z,5.30
2018-12-08T07:18:11.751Z,5.07
2018-12-08T07:20:40.316Z,4.90
2018-12-08T07:23:08.839Z,4.17
2018-12-08T07:25:37.342Z,4.13
2018-12-08T07:28:05.905Z,4.47
2018-12-08T07:30:34.447Z,4.37
2018-12-08T07:33:03.158Z,4.23
2018-12-08T07:35:31.685Z,3.67
2018-12-08T07:38:00.218Z,3.50
2018-12-08T07:40:28.759Z,4.23
2018-12-08T07:42:57.305Z,3.73
2018-12-08T07:45:25.977Z,4.27
2018-12-08T07:47:54.617Z,3.77
2018-12-08T07:50:23.133Z,4.20
2018-12-08T07:52:51.680Z,5.07
2018-12-08T07:55:20.311Z,5.40
2018-12-08T07:57:48.940Z,4.80
2018-12-08T08:00:17.455Z,5.23
2018-12-08T08:02:46.177Z,5.50
2018-12-08T08:05:14.955Z,5.00
2018-12-08T08:07:43.474Z,5.10
2018-12-08T08:10:12.138Z,5.30
2018-12-08T08:12:40.698Z,5.40
2018-12-08T08:15:10.635Z,4.97
2018-12-08T08:17:39.306Z,5.13
2018-12-08T08:20:10.312Z,5.27
2018-12-08T08:22:39.262Z,5.27
2018-12-08T08:25:10.218Z,5.00
2018-12-08T08:27:38.742Z,4.87
2018-12-08T08:30:10.058Z,4.87
2018-12-08T08:32:38.854Z,5.70
2018-12-08T08:35:08.224Z,5.00
2018-12-08T08:37:36.775Z,5.20
2018-12-08T08:40:07.669Z,4.40
2018-12-08T08:42:36.208Z,4.27
2018-12-08T08:45:05.400Z,4.57
2018-12-08T08:47:33.949Z,4.20
2018-12-08T08:50:02.498Z,4.60
2018-12-08T08:52:31.021Z,4.40
2018-12-08T08:54:59.552Z,3.73
2018-12-08T08:57:28.086Z,4.40
2018-12-08T08:59:56.717Z,4.17
2018-12-08T09:02:25.278Z,3.70
2018-12-08T09:04:53.798Z,3.90
2018-12-08T09:07:22.372Z,4.50
2018-12-08T09:09:50.899Z,4.50
2018-12-08T09:12:19.673Z,4.63
2018-12-08T09:14:48.594Z,4.17
2018-12-08T09:17:17.152Z,4.53
2018-12-08T09:19:45.770Z,4.70
2018-12-08T09:22:14.366Z,4.50
2018-12-08T09:24:42.970Z,4.23
2018-12-08T09:27:11.498Z,4.53
2018-12-08T09:29:40.102Z,4.40
2018-12-08T09:32:08.619Z,5.17
2018-12-08T09:34:37.161Z,4.50
2018-12-08T09:37:05.713Z,4.67
2018-12-08T09:39:34.251Z,4.57
2018-12-08T09:42:02.913Z,4.60
2018-12-08T09:44:31.459Z,4.43
2018-12-08T09:47:00.011Z,3.93
2018-12-08T09:49:28.522Z,4.13
2018-12-08T09:51:57.068Z,3.90
2018-12-08T09:54:25.754Z,3.10
2018-12-08T09:56:54.282Z,2.73
2018-12-08T09:59:22.821Z,2.93
2018-12-08T10:01:51.481Z,3.67
2018-12-08T10:04:20.056Z,3.23
2018-12-08T10:06:48.821Z,3.30
2018-12-08T10:09:17.357Z,3.00
2018-12-08T10:11:45.870Z,3.33
2018-12-08T10:14:14.489Z,3.73
2018-12-08T10:16:43.259Z,3.30
2018-12-08T10:19:11.815Z,2.63
2018-12-08T10:21:40.348Z,3.00
2018-12-08T10:24:08.950Z,3.27
2018-12-08T10:26:37.541Z,2.87
2018-12-08T10:29:07.120Z,3.07
2018-12-08T10:31:35.628Z,2.67
2018-12-08T10:34:04.418Z,3.43
2018-12-08T10:36:32.971Z,3.23
2018-12-08T10:39:01.640Z,3.20
2018-12-08T10:41:30.417Z,3.03
2018-12-08T10:43:59.152Z,3.03
2018-12-08T10:46:27.885Z,3.30
2018-12-08T10:48:56.478Z,3.90
2018-12-08T10:51:25.114Z,3.07
2018-12-08T10:53:53.636Z,3.37
2018-12-08T10:56:22.177Z,3.67
2018-12-08T10:58:50.696Z,3.10
2018-12-08T11:01:23.441Z,3.53
2018-12-08T11:03:52.429Z,3.73
2018-12-08T11:06:21.765Z,2.77
2018-12-08T11:08:50.295Z,3.43
2018-12-08T11:11:18.820Z,2.67
2018-12-08T11:13:47.407Z,2.90
2018-12-08T11:16:16.054Z,2.80
2018-12-08T11:18:44.583Z,3.10
2018-12-08T11:21:13.121Z,3.67
2018-12-08T11:23:41.643Z,3.30
2018-12-08T11:26:10.366Z,3.40
2018-12-08T11:28:38.903Z,2.87
2018-12-08T11:31:07.456Z,3.43
2018-12-08T11:33:36.306Z,3.23
2018-12-08T11:36:04.910Z,3.63
2018-12-08T11:38:33.408Z,4.23
2018-12-08T11:41:01.926Z,2.93
2018-12-08T11:43:30.452Z,2.77
2018-12-08T11:45:58.966Z,3.27
2018-12-08T11:48:27.524Z,3.10
2018-12-08T11:50:56.062Z,3.07
2018-12-08T11:53:24.683Z,3.17
2018-12-08T11:55:53.205Z,3.17
2018-12-08T11:58:21.718Z,3.43
2018-12-08T12:00:50.291Z,3.10
2018-12-08T12:03:18.849Z,3.33
2018-12-08T12:05:47.563Z,3.10
2018-12-08T12:08:16.080Z,2.90
2018-12-08T12:10:44.643Z,3.43
2018-12-08T12:13:13.167Z,2.90
2018-12-08T12:15:41.715Z,3.20
2018-12-08T12:18:10.423Z,2.57
2018-12-08T12:20:39.095Z,2.73
2018-12-08T12:23:07.659Z,3.00
2018-12-08T12:25:36.210Z,2.90
2018-12-08T12:28:05.079Z,2.97
2018-12-08T12:30:33.701Z,2.77
2018-12-08T12:33:02.283Z,2.90
2018-12-08T12:35:31.038Z,3.10
2018-12-08T12:37:59.598Z,3.27
2018-12-08T12:40:28.316Z,3.10
2018-12-08T12:42:56.890Z,3.20
2018-12-08T12:45:25.411Z,3.20
2018-12-08T12:47:54.196Z,2.87
2018-12-08T12:50:22.783Z,3.40
2018-12-08T12:52:57.736Z,3.13
2018-12-08T12:55:26.280Z,2.83
2018-12-08T12:57:55.025Z,2.73
2018-12-08T13:00:23.594Z,2.77
2018-12-08T13:02:52.162Z,2.67
2018-12-08T13:05:20.704Z,3.30
2018-12-08T13:07:49.454Z,3.67
2018-12-08T13:10:18.009Z,4.17
2018-12-08T13:12:46.655Z,2.70
2018-12-08T13:15:15.215Z,3.20
2018-12-08T13:17:43.745Z,2.50
2018-12-08T13:20:12.343Z,2.97
2018-12-08T13:22:40.922Z,3.40
2018-12-08T13:25:19.946Z,3.03
2018-12-08T13:27:48.452Z,2.70
2018-12-08T13:30:17.024Z,3.50
2018-12-08T13:32:45.553Z,3.03
2018-12-08T13:35:40.066Z,2.80
2018-12-08T13:38:08.634Z,3.00
2018-12-08T13:40:37.158Z,2.93
2018-12-08T13:43:05.867Z,3.53
2018-12-08T13:45:34.442Z,2.63
2018-12-08T13:48:03.038Z,3.27
2018-12-08T13:50:31.748Z,3.43
2018-12-08T13:53:00.383Z,4.30
2018-12-08T13:55:28.929Z,3.23
2018-12-08T13:57:57.486Z,2.90
2018-12-08T14:00:26.277Z,2.83
2018-12-08T14:02:54.827Z,3.17
2018-12-08T14:05:23.602Z,2.70
2018-12-08T14:07:52.146Z,3.10
2018-12-08T14:10:20.855Z,3.03
2018-12-08T14:12:49.414Z,3.13
2018-12-08T14:15:18.018Z,3.17
2018-12-08T14:17:46.541Z,3.33
2018-12-08T14:20:23.447Z,3.70
2018-12-08T14:22:52.264Z,3.50
2018-12-08T14:25:20.952Z,3.07
2018-12-08T14:27:49.490Z,2.60
2018-12-08T14:30:18.039Z,3.37
2018-12-08T14:32:46.542Z,2.40
2018-12-08T14:35:15.106Z,2.90
2018-12-08T14:37:43.944Z,3.47
2018-12-08T14:40:12.759Z,3.00
2018-12-08T14:42:41.301Z,3.13
2018-12-08T14:45:11.515Z,4.00
2018-12-08T14:47:46.537Z,3.87
2018-12-08T14:50:15.106Z,3.70
2018-12-08T14:52:43.653Z,3.93
2018-12-08T14:55:12.211Z,3.20
2018-12-08T14:57:41.076Z,3.23
2018-12-08T15:00:12.084Z,3.80
2018-12-08T15:02:40.680Z,3.70
2018-12-08T15:05:10.835Z,3.47
2018-12-08T15:07:39.392Z,3.50
2018-12-08T15:10:11.180Z,3.30
2018-12-08T15:12:39.723Z,3.27
2018-12-08T15:15:09.910Z,3.73
2018-12-08T15:17:38.648Z,4.20
2018-12-08T15:20:08.991Z,4.30
2018-12-08T15:22:38.065Z,3.63
2018-12-08T15:25:08.685Z,3.67
2018-12-08T15:27:37.685Z,3.10
2018-12-08T15:30:08.033Z,3.33
2018-12-08T15:32:36.627Z,4.00
2018-12-08T15:35:08.373Z,2.93
2018-12-08T15:37:37.105Z,3.07
2018-12-08T15:40:06.616Z,3.10
2018-12-08T15:42:35.237Z,3.17
2018-12-08T15:45:05.037Z,3.27
2018-12-08T15:47:33.576Z,3.93
2018-12-08T15:50:02.362Z,3.37
2018-12-08T15:52:30.874Z,3.53
2018-12-08T15:54:59.573Z,2.90
2018-12-08T15:57:28.104Z,2.50
2018-12-08T15:59:56.654Z,3.73
2018-12-08T16:02:25.235Z,3.97
2018-12-08T16:04:53.922Z,2.80
2018-12-08T16:07:22.595Z,3.67
2018-12-08T16:09:51.279Z,3.33
2018-12-08T16:12:19.812Z,2.83
2018-12-08T16:14:48.351Z,3.00
2018-12-08T16:17:16.927Z,2.70
2018-12-08T16:19:45.478Z,2.80
2018-12-08T16:22:14.043Z,3.67
2018-12-08T16:24:42.566Z,3.00
2018-12-08T16:27:11.234Z,3.37
2018-12-08T16:29:39.791Z,3.27
2018-12-08T16:32:08.328Z,2.87
2018-12-08T16:34:37.147Z,3.00
2018-12-08T16:37:05.690Z,3.17
2018-12-08T16:39:34.263Z,2.83
2018-12-08T16:42:02.858Z,3.73
2018-12-08T16:44:31.490Z,2.80
2018-12-08T16:46:59.992Z,3.33
2018-12-08T16:49:28.654Z,3.80
2018-12-08T16:51:57.252Z,3.03
2018-12-08T16:54:25.754Z,3.10
2018-12-08T16:56:54.296Z,2.40
2018-12-08T16:59:22.867Z,3.27
2018-12-08T17:01:54.112Z,2.80
2018-12-08T17:04:23.121Z,2.50
2018-12-08T17:06:51.685Z,2.67
2018-12-08T17:09:20.348Z,2.53
2018-12-08T17:11:48.964Z,2.43
2018-12-08T17:14:17.489Z,3.20
2018-12-08T17:16:45.983Z,2.70
2018-12-08T17:19:14.540Z,2.60
2018-12-08T17:21:43.224Z,2.50
2018-12-08T17:24:11.747Z,2.63
2018-12-08T17:26:40.280Z,2.60
2018-12-08T17:29:08.885Z,1.80
2018-12-08T17:31:37.530Z,2.70
2018-12-08T17:34:06.088Z,2.90
2018-12-08T17:36:34.645Z,3.13
2018-12-08T17:39:03.668Z,2.73
2018-12-08T17:41:32.438Z,2.40
2018-12-08T17:44:03.449Z,2.67
2018-12-08T17:46:32.107Z,2.47
2018-12-08T17:49:00.656Z,3.00
2018-12-08T17:51:29.198Z,2.83
2018-12-08T17:53:59.757Z,2.37
2018-12-08T17:56:28.263Z,2.30
2018-12-08T17:58:56.802Z,2.70
2018-12-08T18:01:25.537Z,2.80
2018-12-08T18:03:54.405Z,2.50
2018-12-08T18:06:23.055Z,2.60
2018-12-08T18:08:51.696Z,2.30
2018-12-08T18:11:20.437Z,2.33
2018-12-08T18:13:48.951Z,2.60
2018-12-08T18:16:17.640Z,2.97
2018-12-08T18:18:46.158Z,2.90
2018-12-08T18:21:14.785Z,2.70
2018-12-08T18:23:43.359Z,3.13
2018-12-08T18:26:11.987Z,3.03
2018-12-08T18:28:40.522Z,2.63
2018-12-08T18:31:09.088Z,3.43
2018-12-08T18:33:37.624Z,3.03
2018-12-08T18:36:06.274Z,2.53
2018-12-08T18:38:34.943Z,2.97
2018-12-08T18:41:03.536Z,3.60
2018-12-08T18:43:32.298Z,2.60
2018-12-08T18:46:00.854Z,3.07
2018-12-08T18:48:29.425Z,3.20
2018-12-08T18:50:57.991Z,3.33
2018-12-08T18:53:26.489Z,3.37
2018-12-08T18:55:55.013Z,2.77
2018-12-08T18:58:23.563Z,3.53
2018-12-08T19:00:52.103Z,3.40
2018-12-08T19:03:20.654Z,3.20
2018-12-08T19:05:49.383Z,3.47
2018-12-08T19:08:17.928Z,3.33
2018-12-08T19:10:46.498Z,3.30
2018-12-08T19:13:15.043Z,3.20
2018-12-08T19:15:43.561Z,3.27
2018-12-08T19:18:12.310Z,3.70
2018-12-08T19:20:41.026Z,3.80
2018-12-08T19:23:10.318Z,3.27
2018-12-08T19:25:38.860Z,3.60
2018-12-08T19:28:07.418Z,3.80
2018-12-08T19:30:35.958Z,3.97
2018-12-08T19:33:04.672Z,3.80
2018-12-08T19:35:33.507Z,4.00
2018-12-08T19:38:02.223Z,3.87
2018-12-08T19:40:30.800Z,3.93
2018-12-08T19:42:59.385Z,4.03
2018-12-08T19:45:28.063Z,4.17
2018-12-08T19:47:56.748Z,4.00
2018-12-08T19:50:25.668Z,4.43
2018-12-08T19:52:54.407Z,5.00
2018-12-08T19:55:22.952Z,4.20
2018-12-08T19:57:51.488Z,5.70
2018-12-08T20:00:20.151Z,5.23
2018-12-08T20:02:49.020Z,4.77
2018-12-08T20:05:17.584Z,4.27
2018-12-08T20:07:46.149Z,5.27
2018-12-08T20:10:14.862Z,5.03
2018-12-08T20:12:43.402Z,5.73
2018-12-08T20:15:12.980Z,5.00
2018-12-08T20:17:41.540Z,4.77
2018-12-08T20:20:10.135Z,5.40
2018-12-08T20:22:38.713Z,5.17
2018-12-08T20:25:07.570Z,5.27
2018-12-08T20:27:36.134Z,5.17
2018-12-08T20:30:05.542Z,5.03
2018-12-08T20:32:34.118Z,4.83
2018-12-08T20:35:02.686Z,6.23
2018-12-08T20:37:31.909Z,5.20
2018-12-08T20:40:00.451Z,5.27
2018-12-08T20:42:29.023Z,5.70
2018-12-08T20:44:57.528Z,5.80
2018-12-08T20:47:26.142Z,7.83
2018-12-08T20:49:54.705Z,11.17
2018-12-08T20:52:23.231Z,11.17
2018-12-08T20:54:51.818Z,15.30
2018-12-08T20:57:20.366Z,11.00
2018-12-08T20:59:49.220Z,7.97
2018-12-08T21:02:17.761Z,8.10
2018-12-08T21:04:46.309Z,7.00
2018-12-08T21:07:14.821Z,7.13
2018-12-08T21:09:43.469Z,6.77
2018-12-08T21:12:11.988Z,7.27
2018-12-08T21:14:40.597Z,7.37
2018-12-08T21:17:09.188Z,6.87
2018-12-08T21:19:38.621Z,7.53
2018-12-08T21:22:07.317Z,6.70
2018-12-08T21:24:36.273Z,6.97
2018-12-08T21:27:06.226Z,7.17
2018-12-08T21:29:35.107Z,6.17
2018-12-08T21:32:03.673Z,7.00
2018-12-08T21:34:32.850Z,6.43
2018-12-08T21:37:01.381Z,6.77
2018-12-08T21:39:29.993Z,6.60
2018-12-08T21:41:58.537Z,6.20
2018-12-08T21:44:27.096Z,6.50
2018-12-08T21:46:55.634Z,6.73
2018-12-08T21:49:24.185Z,5.37
2018-12-08T21:51:52.719Z,5.30
2018-12-08T21:54:21.233Z,5.57
2018-12-08T21:56:49.757Z,5.43
2018-12-08T21:59:18.283Z,6.10
2018-12-08T22:01:46.880Z,6.10
2018-12-08T22:04:15.771Z,6.00
2018-12-08T22:06:44.333Z,6.10
2018-12-08T22:09:12.904Z,6.30
2018-12-08T22:11:41.617Z,6.17
2018-12-08T22:14:10.166Z,6.13
2018-12-08T22:16:38.670Z,5.80
2018-12-08T22:19:07.208Z,6.53
2018-12-08T22:21:35.736Z,6.90
2018-12-08T22:24:04.320Z,6.60
2018-12-08T22:26:32.870Z,6.17
2018-12-08T22:29:01.410Z,6.50
2018-12-08T22:31:29.921Z,6.13
2018-12-08T22:33:58.506Z,6.93
2018-12-08T22:36:27.023Z,6.10
2018-12-08T22:38:55.658Z,6.63
2018-12-08T22:41:24.195Z,6.17
2018-12-08T22:43:52.876Z,6.03
2018-12-08T22:46:21.391Z,6.27
2018-12-08T22:48:49.941Z,6.50
2018-12-08T22:51:18.443Z,6.40
2018-12-08T22:53:47.067Z,5.70
2018-12-08T22:56:15.721Z,6.20
2018-12-08T22:58:44.281Z,6.63
2018-12-08T23:01:12.821Z,5.60
2018-12-08T23:03:41.342Z,5.13
2018-12-08T23:06:10.094Z,3.73
2018-12-08T23:08:38.667Z,2.30
2018-12-08T23:11:07.233Z,1.20
2018-12-08T23:13:35.871Z,0.77
2018-12-08T23:16:04.584Z,1.00
2018-12-08T23:18:33.108Z,0.80
2018-12-08T23:21:01.650Z,0.80
2018-12-08T23:23:30.184Z,0.87
2018-12-08T23:25:58.772Z,0.80
2018-12-08T23:28:27.294Z,0.97
2018-12-08T23:30:55.903Z,1.00
2018-12-08T23:33:24.510Z,0.73
2018-12-08T23:35:53.230Z,1.10
2018-12-08T23:38:21.766Z,0.50
2018-12-08T23:40:50.472Z,0.70
2018-12-08T23:43:19.988Z,0.40
2018-12-08T23:45:48.533Z,0.60
2018-12-08T23:48:17.037Z,0.50
2018-12-08T23:50:45.559Z,0.67
2018-12-08T23:53:14.125Z,0.40
2018-12-08T23:55:42.677Z,0.80
2018-12-08T23:58:11.211Z,0.50
